sensor_id;sensor_type;location;lat;lon;timestamp;pressure;altitude;pressure_sealevel;temperature;humidity
72294;BME280;60632;49.236;8.398;2023-02-13T00:01:26;102612.25;;;23.75;40.00
72294;BME280;60632;49.236;8.398;2023-02-13T00:04:27;102610.31;;;23.76;39.97
72294;BME280;60632;49.236;8.398;2023-02-13T00:07:27;102610.31;;;23.76;40.13
72294;BME280;60632;49.236;8.398;2023-02-13T00:10:27;102615.03;;;23.75;40.08
72294;BME280;60632;49.236;8.398;2023-02-13T00:13:28;102608.66;;;23.75;39.89
72294;BME280;60632;49.236;8.398;2023-02-13T00:16:28;102614.19;;;23.75;40.03
72294;BME280;60632;49.236;8.398;2023-02-13T00:19:28;102612.53;;;23.74;40.00
72294;BME280;60632;49.236;8.398;2023-02-13T00:22:28;102604.25;;;23.74;40.04
72294;BME280;60632;49.236;8.398;2023-02-13T00:25:29;102604.25;;;23.74;40.02
72294;BME280;60632;49.236;8.398;2023-02-13T00:28:29;102598.94;;;23.72;40.05
72294;BME280;60632;49.236;8.398;2023-02-13T00:31:29;102595.34;;;23.72;40.10
72294;BME280;60632;49.236;8.398;2023-02-13T00:34:30;102599.78;;;23.73;40.19
72294;BME280;60632;49.236;8.398;2023-02-13T00:37:30;102591.75;;;23.71;40.15
72294;BME280;60632;49.236;8.398;2023-02-13T00:40:32;102596.47;;;23.71;39.86
72294;BME280;60632;49.236;8.398;2023-02-13T00:43:32;102594.78;;;23.70;40.13
72294;BME280;60632;49.236;8.398;2023-02-13T00:46:33;102593.13;;;23.69;40.06
72294;BME280;60632;49.236;8.398;2023-02-13T00:49:33;102600.31;;;23.70;40.10
72294;BME280;60632;49.236;8.398;2023-02-13T00:52:33;102600.31;;;23.70;39.89
72294;BME280;60632;49.236;8.398;2023-02-13T00:55:34;102591.44;;;23.68;39.98
72294;BME280;60632;49.236;8.398;2023-02-13T00:58:34;102598.06;;;23.67;39.99
72294;BME280;60632;49.236;8.398;2023-02-13T01:01:35;102600.81;;;23.67;40.00
72294;BME280;60632;49.236;8.398;2023-02-13T01:04:35;102604.69;;;23.66;40.05
72294;BME280;60632;49.236;8.398;2023-02-13T01:07:35;102603.03;;;23.65;40.01
72294;BME280;60632;49.236;8.398;2023-02-13T01:10:36;102607.47;;;23.66;39.80
72294;BME280;60632;49.236;8.398;2023-02-13T01:13:36;102604.69;;;23.66;40.07
72294;BME280;60632;49.236;8.398;2023-02-13T01:16:37;102604.69;;;23.66;39.97
72294;BME280;60632;49.236;8.398;2023-02-13T01:19:39;102603.03;;;23.65;40.04
72294;BME280;60632;49.236;8.398;2023-02-13T01:22:40;102608.56;;;23.65;39.92
72294;BME280;60632;49.236;8.398;2023-02-13T01:25:43;102611.34;;;23.65;40.07
72294;BME280;60632;49.236;8.398;2023-02-13T01:28:43;102608.56;;;23.65;40.03
72294;BME280;60632;49.236;8.398;2023-02-13T01:31:43;102600.53;;;23.63;39.98
72294;BME280;60632;49.236;8.398;2023-02-13T01:34:44;102598.59;;;23.64;39.96
72294;BME280;60632;49.236;8.398;2023-02-13T01:37:44;102595.81;;;23.64;39.91
72294;BME280;60632;49.236;8.398;2023-02-13T01:40:48;102601.34;;;23.64;39.91
72294;BME280;60632;49.236;8.398;2023-02-13T01:46:49;102591.38;;;23.63;39.93
72294;BME280;60632;49.236;8.398;2023-02-13T01:49:50;102588.63;;;23.63;39.82
72294;BME280;60632;49.236;8.398;2023-02-13T01:52:56;102583.09;;;23.63;39.98
72294;BME280;60632;49.236;8.398;2023-02-13T01:56:03;102580.31;;;23.63;39.85
72294;BME280;60632;49.236;8.398;2023-02-13T01:59:06;102584.19;;;23.62;39.87
72294;BME280;60632;49.236;8.398;2023-02-13T02:02:08;102591.38;;;23.63;39.97
72294;BME280;60632;49.236;8.398;2023-02-13T02:05:09;102598.03;;;23.62;39.92
72294;BME280;60632;49.236;8.398;2023-02-13T02:08:11;102598.88;;;23.62;39.90
72294;BME280;60632;49.236;8.398;2023-02-13T02:11:15;102593.31;;;23.62;39.78
72294;BME280;60632;49.236;8.398;2023-02-13T02:14:17;102595.28;;;23.62;39.93
72294;BME280;60632;49.236;8.398;2023-02-13T02:17:17;102596.09;;;23.62;39.87
72294;BME280;60632;49.236;8.398;2023-02-13T02:32:54;102590.81;;;23.61;39.80
72294;BME280;60632;49.236;8.398;2023-02-13T02:36:21;102588.03;;;23.61;39.95
72294;BME280;60632;49.236;8.398;2023-02-13T02:45:39;102582.50;;;23.61;39.81
72294;BME280;60632;49.236;8.398;2023-02-13T02:52:39;102583.63;;;23.60;39.88
72294;BME280;60632;49.236;8.398;2023-02-13T02:58:56;102581.97;;;23.59;39.80
72294;BME280;60632;49.236;8.398;2023-02-13T03:02:19;102578.38;;;23.58;39.64
72294;BME280;60632;49.236;8.398;2023-02-13T03:05:46;102581.97;;;23.59;39.81
72294;BME280;60632;49.236;8.398;2023-02-13T03:09:08;102574.75;;;23.58;39.75
72294;BME280;60632;49.236;8.398;2023-02-13T03:12:29;102579.19;;;23.59;39.81
72294;BME280;60632;49.236;8.398;2023-02-13T03:15:51;102584.97;;;23.57;39.82
72294;BME280;60632;49.236;8.398;2023-02-13T03:19:13;102583.03;;;23.58;39.79
72294;BME280;60632;49.236;8.398;2023-02-13T03:29:11;102591.34;;;23.58;39.74
72294;BME280;60632;49.236;8.398;2023-02-13T03:42:12;102599.94;;;23.56;39.76
72294;BME280;60632;49.236;8.398;2023-02-13T03:45:20;102607.41;;;23.56;39.65
72294;BME280;60632;49.236;8.398;2023-02-13T03:48:41;102604.63;;;23.56;39.79
72294;BME280;60632;49.236;8.398;2023-02-13T03:52:03;102602.97;;;23.55;39.66
72294;BME280;60632;49.236;8.398;2023-02-13T03:55:06;102609.34;;;23.55;39.66
72294;BME280;60632;49.236;8.398;2023-02-13T03:58:31;102607.41;;;23.56;39.78
72294;BME280;60632;49.236;8.398;2023-02-13T04:01:56;102611.28;;;23.55;39.63
72294;BME280;60632;49.236;8.398;2023-02-13T04:05:02;102609.34;;;23.55;39.73
72294;BME280;60632;49.236;8.398;2023-02-13T04:08:05;102614.06;;;23.55;39.65
72294;BME280;60632;49.236;8.398;2023-02-13T04:11:08;102614.06;;;23.55;39.66
72294;BME280;60632;49.236;8.398;2023-02-13T04:14:17;102614.06;;;23.55;39.61
72294;BME280;60632;49.236;8.398;2023-02-13T04:17:23;102613.19;;;23.54;39.61
72294;BME280;60632;49.236;8.398;2023-02-13T04:20:26;102607.66;;;23.54;39.77
72294;BME280;60632;49.236;8.398;2023-02-13T04:23:27;102611.53;;;23.53;39.69
72294;BME280;60632;49.236;8.398;2023-02-13T04:26:30;102614.06;;;23.55;39.45
72294;BME280;60632;49.236;8.398;2023-02-13T04:29:31;102610.72;;;23.52;39.65
72294;BME280;60632;49.236;8.398;2023-02-13T04:32:32;102616.25;;;23.52;39.70
72294;BME280;60632;49.236;8.398;2023-02-13T04:35:32;102610.72;;;23.52;39.68
72294;BME280;60632;49.236;8.398;2023-02-13T04:38:33;102607.94;;;23.52;39.69
72294;BME280;60632;49.236;8.398;2023-02-13T04:41:33;102607.94;;;23.52;39.59
72294;BME280;60632;49.236;8.398;2023-02-13T04:44:33;102609.03;;;23.51;39.62
72294;BME280;60632;49.236;8.398;2023-02-13T04:47:34;102605.16;;;23.52;39.46
72294;BME280;60632;49.236;8.398;2023-02-13T04:50:35;102599.63;;;23.52;39.59
72294;BME280;60632;49.236;8.398;2023-02-13T04:53:35;102600.47;;;23.53;39.56
72294;BME280;60632;49.236;8.398;2023-02-13T04:56:38;102596.88;;;23.52;39.61
72294;BME280;60632;49.236;8.398;2023-02-13T04:59:38;102606.00;;;23.53;39.58
72294;BME280;60632;49.236;8.398;2023-02-13T05:02:38;102594.94;;;23.53;39.49
72294;BME280;60632;49.236;8.398;2023-02-13T05:05:39;102606.81;;;23.53;39.52
72294;BME280;60632;49.236;8.398;2023-02-13T05:08:39;102599.63;;;23.52;39.52
72294;BME280;60632;49.236;8.398;2023-02-13T05:11:40;102602.97;;;23.55;39.57
72294;BME280;60632;49.236;8.398;2023-02-13T05:14:40;102601.28;;;23.53;39.56
72294;BME280;60632;49.236;8.398;2023-02-13T05:17:44;102602.97;;;23.55;39.41
72294;BME280;60632;49.236;8.398;2023-02-13T05:20:44;102602.97;;;23.55;39.53
72294;BME280;60632;49.236;8.398;2023-02-13T05:24:04;102601.28;;;23.53;39.48
72294;BME280;60632;49.236;8.398;2023-02-13T05:27:05;102601.28;;;23.53;39.52
72294;BME280;60632;49.236;8.398;2023-02-13T05:30:05;102603.22;;;23.53;39.44
72294;BME280;60632;49.236;8.398;2023-02-13T05:33:06;102605.75;;;23.55;39.43
72294;BME280;60632;49.236;8.398;2023-02-13T05:36:06;102601.28;;;23.53;39.42
72294;BME280;60632;49.236;8.398;2023-02-13T05:39:07;102602.13;;;23.54;39.36
72294;BME280;60632;49.236;8.398;2023-02-13T05:42:07;102598.53;;;23.53;39.40
72294;BME280;60632;49.236;8.398;2023-02-13T05:45:09;102602.13;;;23.54;39.38
72294;BME280;60632;49.236;8.398;2023-02-13T05:48:09;102591.91;;;23.55;39.38
72294;BME280;60632;49.236;8.398;2023-02-13T05:51:10;102591.06;;;23.54;39.45
72294;BME280;60632;49.236;8.398;2023-02-13T05:54:10;102595.75;;;23.53;39.35
72294;BME280;60632;49.236;8.398;2023-02-13T05:57:11;102597.44;;;23.55;39.30
72294;BME280;60632;49.236;8.398;2023-02-13T06:00:11;102591.06;;;23.54;39.45
72294;BME280;60632;49.236;8.398;2023-02-13T06:03:11;102596.59;;;23.54;39.30
72294;BME280;60632;49.236;8.398;2023-02-13T06:06:12;102594.69;;;23.55;39.20
72294;BME280;60632;49.236;8.398;2023-02-13T06:09:13;102602.97;;;23.55;39.37
72294;BME280;60632;49.236;8.398;2023-02-13T06:12:13;102594.69;;;23.55;39.27
72294;BME280;60632;49.236;8.398;2023-02-13T06:15:13;102594.69;;;23.55;39.36
72294;BME280;60632;49.236;8.398;2023-02-13T06:18:14;102597.44;;;23.55;39.25
72294;BME280;60632;49.236;8.398;2023-02-13T06:21:14;102598.53;;;23.53;39.33
72294;BME280;60632;49.236;8.398;2023-02-13T06:24:14;102602.97;;;23.55;39.28
72294;BME280;60632;49.236;8.398;2023-02-13T06:27:14;102608.50;;;23.55;39.30
72294;BME280;60632;49.236;8.398;2023-02-13T06:30:15;102601.03;;;23.55;39.27
72294;BME280;60632;49.236;8.398;2023-02-13T06:33:15;102605.75;;;23.55;39.05
72294;BME280;60632;49.236;8.398;2023-02-13T06:36:16;102608.50;;;23.55;39.13
72294;BME280;60632;49.236;8.398;2023-02-13T06:39:16;102602.97;;;23.55;39.13
72294;BME280;60632;49.236;8.398;2023-02-13T06:42:16;102608.50;;;23.55;39.14
72294;BME280;60632;49.236;8.398;2023-02-13T06:45:17;102610.41;;;23.54;39.27
72294;BME280;60632;49.236;8.398;2023-02-13T06:48:18;102616.81;;;23.55;39.18
72294;BME280;60632;49.236;8.398;2023-02-13T06:51:18;102622.34;;;23.55;39.34
72294;BME280;60632;49.236;8.398;2023-02-13T06:54:19;102628.97;;;23.53;39.18
72294;BME280;60632;49.236;8.398;2023-02-13T06:57:19;102628.97;;;23.53;39.17
72294;BME280;60632;49.236;8.398;2023-02-13T07:00:19;102628.13;;;23.53;39.17
72294;BME280;60632;49.236;8.398;2023-02-13T07:03:20;102630.09;;;23.52;39.12
72294;BME280;60632;49.236;8.398;2023-02-13T07:06:20;102630.91;;;23.53;39.26
72294;BME280;60632;49.236;8.398;2023-02-13T07:09:20;102627.31;;;23.52;39.25
72294;BME280;60632;49.236;8.398;2023-02-13T07:12:21;102633.97;;;23.51;39.14
72294;BME280;60632;49.236;8.398;2023-02-13T07:15:21;102636.72;;;23.51;39.15
72294;BME280;60632;49.236;8.398;2023-02-13T07:18:21;102635.88;;;23.51;39.19
72294;BME280;60632;49.236;8.398;2023-02-13T07:21:21;102635.88;;;23.51;39.13
72294;BME280;60632;49.236;8.398;2023-02-13T07:24:22;102633.97;;;23.51;39.05
72294;BME280;60632;49.236;8.398;2023-02-13T07:27:22;102639.75;;;23.50;39.15
72294;BME280;60632;49.236;8.398;2023-02-13T07:30:22;102635.88;;;23.51;39.08
72294;BME280;60632;49.236;8.398;2023-02-13T07:33:23;102642.25;;;23.51;39.13
72294;BME280;60632;49.236;8.398;2023-02-13T07:36:23;102635.88;;;23.51;39.11
72294;BME280;60632;49.236;8.398;2023-02-13T07:39:24;102640.03;;;23.48;39.12
72294;BME280;60632;49.236;8.398;2023-02-13T07:42:24;102647.47;;;23.48;39.26
72294;BME280;60632;49.236;8.398;2023-02-13T07:45:24;102644.97;;;23.46;39.30
72294;BME280;60632;49.236;8.398;2023-02-13T07:48:25;102646.63;;;23.47;38.86
72294;BME280;60632;49.236;8.398;2023-02-13T07:51:28;102656.88;;;23.47;39.07
72294;BME280;60632;49.236;8.398;2023-02-13T07:54:29;102654.09;;;23.47;39.13
72294;BME280;60632;49.236;8.398;2023-02-13T07:57:29;102656.03;;;23.46;39.10
72294;BME280;60632;49.236;8.398;2023-02-13T08:00:30;102653.28;;;23.46;39.04
72294;BME280;60632;49.236;8.398;2023-02-13T08:03:33;102654.38;;;23.45;38.81
72294;BME280;60632;49.236;8.398;2023-02-13T08:06:34;102653.53;;;23.45;38.92
72294;BME280;60632;49.236;8.398;2023-02-13T08:09:34;102649.94;;;23.44;39.21
72294;BME280;60632;49.236;8.398;2023-02-13T08:12:53;102655.47;;;23.44;38.95
72294;BME280;60632;49.236;8.398;2023-02-13T08:15:54;102650.22;;;23.43;39.08
72294;BME280;60632;49.236;8.398;2023-02-13T08:18:54;102650.22;;;23.43;39.04
72294;BME280;60632;49.236;8.398;2023-02-13T08:21:54;102647.44;;;23.43;39.12
72294;BME280;60632;49.236;8.398;2023-02-13T08:24:55;102651.31;;;23.42;38.94
72294;BME280;60632;49.236;8.398;2023-02-13T08:27:55;102654.91;;;23.42;39.08
72294;BME280;60632;49.236;8.398;2023-02-13T08:30:55;102654.09;;;23.42;39.05
72294;BME280;60632;49.236;8.398;2023-02-13T08:33:56;102643.84;;;23.42;39.17
72294;BME280;60632;49.236;8.398;2023-02-13T08:36:56;102654.91;;;23.42;38.97
72294;BME280;60632;49.236;8.398;2023-02-13T08:39:56;102647.69;;;23.41;39.08
72294;BME280;60632;49.236;8.398;2023-02-13T08:43:00;102647.69;;;23.41;38.91
72294;BME280;60632;49.236;8.398;2023-02-13T08:46:01;102647.69;;;23.41;38.98
72294;BME280;60632;49.236;8.398;2023-02-13T08:49:01;102647.69;;;23.41;39.05
72294;BME280;60632;49.236;8.398;2023-02-13T08:52:02;102651.56;;;23.40;38.94
72294;BME280;60632;49.236;8.398;2023-02-13T08:55:03;102642.16;;;23.41;39.13
72294;BME280;60632;49.236;8.398;2023-02-13T08:58:04;102636.63;;;23.41;38.95
72294;BME280;60632;49.236;8.398;2023-02-13T09:01:05;102635.78;;;23.41;39.05
72294;BME280;60632;49.236;8.398;2023-02-13T09:04:06;102640.50;;;23.40;39.06
72294;BME280;60632;49.236;8.398;2023-02-13T09:07:06;102639.66;;;23.40;38.98
72294;BME280;60632;49.236;8.398;2023-02-13T09:10:08;102646.88;;;23.41;39.01
72294;BME280;60632;49.236;8.398;2023-02-13T09:13:08;102644.38;;;23.39;38.81
72294;BME280;60632;49.236;8.398;2023-02-13T09:16:09;102650.75;;;23.40;38.98
72294;BME280;60632;49.236;8.398;2023-02-13T09:19:09;102649.91;;;23.39;38.94
72294;BME280;60632;49.236;8.398;2023-02-13T09:22:10;102647.16;;;23.39;38.97
72294;BME280;60632;49.236;8.398;2023-02-13T09:25:10;102646.03;;;23.40;38.88
72294;BME280;60632;49.236;8.398;2023-02-13T09:28:10;102640.78;;;23.39;38.97
72294;BME280;60632;49.236;8.398;2023-02-13T09:31:15;102642.69;;;23.38;39.00
72294;BME280;60632;49.236;8.398;2023-02-13T09:34:16;102638.00;;;23.39;39.05
72294;BME280;60632;49.236;8.398;2023-02-13T09:37:16;102651.84;;;23.39;38.87
72294;BME280;60632;49.236;8.398;2023-02-13T09:40:19;102651.84;;;23.39;38.94
72294;BME280;60632;49.236;8.398;2023-02-13T09:43:30;102648.22;;;23.38;38.90
72294;BME280;60632;49.236;8.398;2023-02-13T09:46:32;102652.09;;;23.37;38.96
72294;BME280;60632;49.236;8.398;2023-02-13T09:49:34;102664.00;;;23.38;39.05
72294;BME280;60632;49.236;8.398;2023-02-13T09:52:36;102663.16;;;23.37;38.84
72294;BME280;60632;49.236;8.398;2023-02-13T09:55:49;102663.16;;;23.37;38.91
72294;BME280;60632;49.236;8.398;2023-02-13T09:59:05;102667.03;;;23.36;38.88
72294;BME280;60632;49.236;8.398;2023-02-13T10:12:02;102656.81;;;23.37;38.83
72294;BME280;60632;49.236;8.398;2023-02-13T10:17:43;102646.56;;;23.37;38.75
72294;BME280;60632;49.236;8.398;2023-02-13T10:23:59;102651.00;;;23.38;38.83
72294;BME280;60632;49.236;8.398;2023-02-13T10:27:04;102651.56;;;23.40;38.83
72294;BME280;60632;49.236;8.398;2023-02-13T10:30:20;102653.22;;;23.41;38.90
72294;BME280;60632;49.236;8.398;2023-02-13T10:33:22;102653.22;;;23.41;38.78
72294;BME280;60632;49.236;8.398;2023-02-13T10:36:29;102654.91;;;23.42;38.70
72294;BME280;60632;49.236;8.398;2023-02-13T10:39:31;102652.16;;;23.42;38.82
72294;BME280;60632;49.236;8.398;2023-02-13T10:42:36;102646.34;;;23.44;38.79
72294;BME280;60632;49.236;8.398;2023-02-13T10:52:59;102637.50;;;23.47;38.61
72294;BME280;60632;49.236;8.398;2023-02-13T11:02:28;102628.38;;;23.46;38.65
72294;BME280;60632;49.236;8.398;2023-02-13T11:05:36;102627.25;;;23.47;38.61
72294;BME280;60632;49.236;8.398;2023-02-13T11:08:40;102624.50;;;23.47;38.64
72294;BME280;60632;49.236;8.398;2023-02-13T11:11:44;102620.66;;;23.48;38.58
72294;BME280;60632;49.236;8.398;2023-02-13T11:14:58;102609.59;;;23.48;38.71
72294;BME280;60632;49.236;8.398;2023-02-13T11:18:01;102608.72;;;23.48;38.64
72294;BME280;60632;49.236;8.398;2023-02-13T11:21:09;102609.59;;;23.48;38.62
72294;BME280;60632;49.236;8.398;2023-02-13T11:24:16;102603.19;;;23.48;38.67
72294;BME280;60632;49.236;8.398;2023-02-13T11:27:21;102609.59;;;23.48;38.55
72294;BME280;60632;49.236;8.398;2023-02-13T11:33:23;102600.16;;;23.49;38.52
72294;BME280;60632;49.236;8.398;2023-02-13T11:36:30;102594.63;;;23.49;38.67
72294;BME280;60632;49.236;8.398;2023-02-13T11:39:32;102588.28;;;23.49;38.62
72294;BME280;60632;49.236;8.398;2023-02-13T11:42:35;102594.63;;;23.49;38.54
72294;BME280;60632;49.236;8.398;2023-02-13T11:45:36;102594.63;;;23.49;38.59
72294;BME280;60632;49.236;8.398;2023-02-13T11:48:36;102589.09;;;23.49;38.59
72294;BME280;60632;49.236;8.398;2023-02-13T11:54:56;102580.78;;;23.49;38.54
72294;BME280;60632;49.236;8.398;2023-02-13T11:57:58;102574.44;;;23.49;38.63
72294;BME280;60632;49.236;8.398;2023-02-13T12:04:15;102572.50;;;23.49;38.45
72294;BME280;60632;49.236;8.398;2023-02-13T12:07:24;102576.38;;;23.48;38.67
72294;BME280;60632;49.236;8.398;2023-02-13T12:10:28;102578.84;;;23.50;38.55
72294;BME280;60632;49.236;8.398;2023-02-13T12:13:32;102568.63;;;23.50;38.51
72294;BME280;60632;49.236;8.398;2023-02-13T12:16:36;102568.63;;;23.50;38.49
72294;BME280;60632;49.236;8.398;2023-02-13T12:19:46;102571.38;;;23.50;38.47
72294;BME280;60632;49.236;8.398;2023-02-13T12:25:58;102565.84;;;23.50;38.47
72294;BME280;60632;49.236;8.398;2023-02-13T12:32:17;102559.22;;;23.51;38.46
72294;BME280;60632;49.236;8.398;2023-02-13T12:45:09;102545.94;;;23.53;38.33
72294;BME280;60632;49.236;8.398;2023-02-13T12:54:38;102539.03;;;23.56;38.45
72294;BME280;60632;49.236;8.398;2023-02-13T13:04:14;102537.69;;;23.59;38.50
72294;BME280;60632;49.236;8.398;2023-02-13T13:29:06;102512.78;;;23.64;38.42
72294;BME280;60632;49.236;8.398;2023-02-13T13:32:12;102515.28;;;23.65;38.27
72294;BME280;60632;49.236;8.398;2023-02-13T13:35:15;102506.69;;;23.67;38.49
72294;BME280;60632;49.236;8.398;2023-02-13T13:38:22;102510.28;;;23.67;38.37
72294;BME280;60632;49.236;8.398;2023-02-13T13:50:49;102505.09;;;23.76;38.37
72294;BME280;60632;49.236;8.398;2023-02-13T13:57:03;102496.56;;;23.78;38.15
72294;BME280;60632;49.236;8.398;2023-02-13T14:03:21;102495.16;;;23.80;38.08
72294;BME280;60632;49.236;8.398;2023-02-13T14:06:23;102500.16;;;23.83;38.10
72294;BME280;60632;49.236;8.398;2023-02-13T14:18:37;102486.34;;;23.88;38.24
72294;BME280;60632;49.236;8.398;2023-02-13T14:21:44;102481.63;;;23.89;38.04
72294;BME280;60632;49.236;8.398;2023-02-13T14:27:55;102481.91;;;23.92;37.88
72294;BME280;60632;49.236;8.398;2023-02-13T14:31:03;102479.72;;;23.94;38.02
72294;BME280;60632;49.236;8.398;2023-02-13T14:46:34;102459.22;;;24.06;37.90
72294;BME280;60632;49.236;8.398;2023-02-13T14:49:40;102463.13;;;24.10;38.05
72294;BME280;60632;49.236;8.398;2023-02-13T14:52:41;102457.31;;;24.11;37.87
72294;BME280;60632;49.236;8.398;2023-02-13T14:55:44;102450.38;;;24.14;37.87
72294;BME280;60632;49.236;8.398;2023-02-13T14:58:53;102459.81;;;24.18;38.04
72294;BME280;60632;49.236;8.398;2023-02-13T15:02:30;102454.53;;;24.21;37.85
72294;BME280;60632;49.236;8.398;2023-02-13T15:05:22;102449.03;;;24.27;37.84
72294;BME280;60632;49.236;8.398;2023-02-13T15:08:26;102457.31;;;24.32;37.77
72294;BME280;60632;49.236;8.398;2023-02-13T15:14:36;102452.38;;;24.39;37.82
72294;BME280;60632;49.236;8.398;2023-02-13T15:17:36;102446.00;;;24.43;37.72
72294;BME280;60632;49.236;8.398;2023-02-13T15:20:40;102447.13;;;24.48;37.83
72294;BME280;60632;49.236;8.398;2023-02-13T15:23:42;102446.56;;;24.51;37.93
72294;BME280;60632;49.236;8.398;2023-02-13T15:26:48;102448.25;;;24.52;37.77
72294;BME280;60632;49.236;8.398;2023-02-13T15:32:55;102445.97;;;24.38;37.83
72294;BME280;60632;49.236;8.398;2023-02-13T15:36:00;102445.97;;;24.28;37.69
72294;BME280;60632;49.236;8.398;2023-02-13T15:39:02;102442.06;;;24.19;37.94
72294;BME280;60632;49.236;8.398;2023-02-13T15:42:08;102445.09;;;24.12;37.91
72294;BME280;60632;49.236;8.398;2023-02-13T15:45:12;102443.16;;;24.03;38.07
72294;BME280;60632;49.236;8.398;2023-02-13T15:48:15;102435.94;;;23.96;38.03
72294;BME280;60632;49.236;8.398;2023-02-13T15:51:20;102443.16;;;23.97;37.88
72294;BME280;60632;49.236;8.398;2023-02-13T15:57:21;102443.16;;;24.03;37.81
72294;BME280;60632;49.236;8.398;2023-02-13T16:00:27;102437.06;;;24.06;37.74
72294;BME280;60632;49.236;8.398;2023-02-13T16:03:28;102433.75;;;24.09;37.92
72294;BME280;60632;49.236;8.398;2023-02-13T16:06:29;102441.50;;;24.12;37.88
72294;BME280;60632;49.236;8.398;2023-02-13T16:09:32;102446.50;;;24.15;37.68
72294;BME280;60632;49.236;8.398;2023-02-13T16:12:33;102436.00;;;24.17;37.75
72294;BME280;60632;49.236;8.398;2023-02-13T16:15:34;102442.06;;;24.19;37.69
72294;BME280;60632;49.236;8.398;2023-02-13T16:18:36;102445.41;;;24.21;37.77
72294;BME280;60632;49.236;8.398;2023-02-13T16:21:36;102447.06;;;24.22;37.87
72294;BME280;60632;49.236;8.398;2023-02-13T16:24:36;102442.09;;;24.24;37.83
72294;BME280;60632;49.236;8.398;2023-02-13T16:27:44;102436.25;;;24.26;37.95
72294;BME280;60632;49.236;8.398;2023-02-13T16:30:53;102432.66;;;24.25;37.93
72294;BME280;60632;49.236;8.398;2023-02-13T16:33:55;102433.22;;;24.27;37.94
72294;BME280;60632;49.236;8.398;2023-02-13T16:36:56;102431.56;;;24.26;37.95
72294;BME280;60632;49.236;8.398;2023-02-13T16:39:56;102432.13;;;24.23;37.77
72294;BME280;60632;49.236;8.398;2023-02-13T16:49:20;102433.47;;;24.26;37.73
72294;BME280;60632;49.236;8.398;2023-02-13T16:52:22;102433.47;;;24.26;38.16
72294;BME280;60632;49.236;8.398;2023-02-13T16:55:25;102444.31;;;24.27;37.84
72294;BME280;60632;49.236;8.398;2023-02-13T16:58:25;102442.09;;;24.29;37.93
72294;BME280;60632;49.236;8.398;2023-02-13T17:01:26;102445.97;;;24.28;37.93
72294;BME280;60632;49.236;8.398;2023-02-13T17:04:27;102458.72;;;24.29;37.99
72294;BME280;60632;49.236;8.398;2023-02-13T17:07:32;102454.84;;;24.30;37.95
72294;BME280;60632;49.236;8.398;2023-02-13T17:10:34;102450.94;;;24.31;38.07
72294;BME280;60632;49.236;8.398;2023-02-13T17:13:34;102448.75;;;24.33;38.17
72294;BME280;60632;49.236;8.398;2023-02-13T17:16:35;102451.53;;;24.33;38.22
72294;BME280;60632;49.236;8.398;2023-02-13T17:19:35;102463.13;;;24.35;38.25
72294;BME280;60632;49.236;8.398;2023-02-13T17:22:39;102464.81;;;24.36;38.30
72294;BME280;60632;49.236;8.398;2023-02-13T17:25:40;102463.44;;;24.39;38.24
72294;BME280;60632;49.236;8.398;2023-02-13T17:28:42;102454.03;;;24.40;38.33
72294;BME280;60632;49.236;8.398;2023-02-13T17:31:42;102462.06;;;24.41;38.16
72294;BME280;60632;49.236;8.398;2023-02-13T17:34:43;102456.53;;;24.41;38.21
72294;BME280;60632;49.236;8.398;2023-02-13T17:37:45;102464.84;;;24.41;38.27
72294;BME280;60632;49.236;8.398;2023-02-13T17:40:46;102464.84;;;24.41;38.43
72294;BME280;60632;49.236;8.398;2023-02-13T17:43:46;102471.25;;;24.42;38.37
72294;BME280;60632;49.236;8.398;2023-02-13T17:46:47;102470.13;;;24.43;38.45
72294;BME280;60632;49.236;8.398;2023-02-13T17:49:47;102471.78;;;24.44;38.30
72294;BME280;60632;49.236;8.398;2023-02-13T17:52:48;102470.94;;;24.43;38.47
72294;BME280;60632;49.236;8.398;2023-02-13T17:55:49;102472.59;;;24.44;38.39
72294;BME280;60632;49.236;8.398;2023-02-13T17:58:49;102475.38;;;24.44;38.51
72294;BME280;60632;49.236;8.398;2023-02-13T18:01:49;102477.31;;;24.44;38.47
72294;BME280;60632;49.236;8.398;2023-02-13T18:04:50;102473.72;;;24.43;38.59
72294;BME280;60632;49.236;8.398;2023-02-13T18:07:50;102469.31;;;24.42;38.62
72294;BME280;60632;49.236;8.398;2023-02-13T18:10:50;102474.03;;;24.42;38.66
72294;BME280;60632;49.236;8.398;2023-02-13T18:13:51;102472.91;;;24.43;38.67
72294;BME280;60632;49.236;8.398;2023-02-13T18:16:51;102466.78;;;24.41;38.66
72294;BME280;60632;49.236;8.398;2023-02-13T18:19:51;102465.94;;;24.40;38.60
72294;BME280;60632;49.236;8.398;2023-02-13T18:22:52;102475.34;;;24.39;38.76
72294;BME280;60632;49.236;8.398;2023-02-13T18:25:52;102473.69;;;24.38;38.61
72294;BME280;60632;49.236;8.398;2023-02-13T18:28:53;102475.34;;;24.39;38.88
72294;BME280;60632;49.236;8.398;2023-02-13T18:31:54;102464.81;;;24.36;38.95
72294;BME280;60632;49.236;8.398;2023-02-13T18:34:55;102478.69;;;24.36;38.95
72294;BME280;60632;49.236;8.398;2023-02-13T18:37:56;102479.75;;;24.35;38.86
72294;BME280;60632;49.236;8.398;2023-02-13T18:40:56;102478.13;;;24.34;39.12
72294;BME280;60632;49.236;8.398;2023-02-13T18:43:56;102489.19;;;24.34;39.04
72294;BME280;60632;49.236;8.398;2023-02-13T18:46:57;102483.13;;;24.32;38.89
72294;BME280;60632;49.236;8.398;2023-02-13T18:49:57;102485.03;;;24.32;38.96
72294;BME280;60632;49.236;8.398;2023-02-13T18:52:57;102486.97;;;24.31;38.89
72294;BME280;60632;49.236;8.398;2023-02-13T18:55:59;102497.53;;;24.29;39.32
72294;BME280;60632;49.236;8.398;2023-02-13T18:58:59;102490.28;;;24.28;39.24
72294;BME280;60632;49.236;8.398;2023-02-13T19:02:00;102500.56;;;24.28;39.20
72294;BME280;60632;49.236;8.398;2023-02-13T19:05:00;102498.06;;;24.26;39.17
72294;BME280;60632;49.236;8.398;2023-02-13T19:08:01;102488.38;;;24.24;39.29